createdAt,value
2019-05-20T00:01:03.551Z,2.27
2019-05-20T00:03:32.552Z,2.07
2019-05-20T00:06:01.534Z,1.73
2019-05-20T00:08:30.406Z,2.33
2019-05-20T00:10:59.370Z,2.30
2019-05-20T00:13:28.417Z,1.73
2019-05-20T00:15:57.269Z,1.90
2019-05-20T00:18:26.331Z,2.27
2019-05-20T00:20:55.262Z,2.00
2019-05-20T00:23:24.213Z,1.80
2019-05-20T00:25:53.095Z,2.30
2019-05-20T00:28:22.066Z,1.77
2019-05-20T00:30:51.093Z,2.40
2019-05-20T00:33:20.052Z,2.13
2019-05-20T00:35:49.005Z,2.43
2019-05-20T00:38:17.895Z,1.93
2019-05-20T00:40:46.726Z,1.97
2019-05-20T00:43:15.598Z,2.20
2019-05-20T00:45:44.621Z,2.00
2019-05-20T00:48:13.487Z,2.63
2019-05-20T00:50:42.417Z,2.20
2019-05-20T00:53:11.410Z,3.10
2019-05-20T00:55:40.514Z,2.90
2019-05-20T00:58:09.506Z,2.83
2019-05-20T01:00:39.099Z,2.27
2019-05-20T01:03:08.060Z,2.33
2019-05-20T01:05:37.063Z,2.70
2019-05-20T01:08:06.995Z,2.37
2019-05-20T01:10:36.063Z,2.67
2019-05-20T01:13:05.010Z,2.33
2019-05-20T01:15:33.988Z,2.53
2019-05-20T01:18:03.011Z,3.17
2019-05-20T01:20:31.921Z,2.93
2019-05-20T01:23:00.802Z,2.80
2019-05-20T01:25:29.762Z,2.67
2019-05-20T01:27:58.729Z,2.70
2019-05-20T01:30:27.694Z,3.27
2019-05-20T01:32:56.657Z,3.50
2019-05-20T01:35:25.694Z,3.73
2019-05-20T01:37:57.444Z,3.40
2019-05-20T01:40:30.650Z,3.77
2019-05-20T01:43:02.790Z,4.17
2019-05-20T01:45:34.386Z,4.37
2019-05-20T01:48:07.087Z,3.83
2019-05-20T01:50:36.091Z,3.87
2019-05-20T01:53:04.901Z,3.57
2019-05-20T01:55:33.738Z,4.10
2019-05-20T01:58:02.764Z,4.80
2019-05-20T02:00:31.691Z,4.37
2019-05-20T02:03:00.574Z,4.90
2019-05-20T02:05:29.576Z,4.37
2019-05-20T02:07:58.849Z,5.03
2019-05-20T02:10:27.705Z,4.77
2019-05-20T02:12:56.711Z,4.93
2019-05-20T02:15:37.726Z,4.17
2019-05-20T02:18:06.619Z,4.93
2019-05-20T02:20:35.635Z,4.60
2019-05-20T02:23:14.893Z,3.63
2019-05-20T02:25:47.829Z,3.90
2019-05-20T02:28:17.208Z,3.80
2019-05-20T02:30:46.058Z,4.53
2019-05-20T02:33:15.014Z,4.80
2019-05-20T02:35:43.933Z,4.93
2019-05-20T02:38:12.821Z,4.43
2019-05-20T02:40:41.807Z,4.67
2019-05-20T02:43:10.694Z,4.60
2019-05-20T02:45:39.631Z,4.67
2019-05-20T02:48:08.611Z,5.37
2019-05-20T02:50:37.618Z,5.10
2019-05-20T02:53:06.578Z,5.03
2019-05-20T02:55:35.480Z,5.23
2019-05-20T02:58:04.435Z,7.30
2019-05-20T03:00:33.393Z,6.13
2019-05-20T03:03:02.365Z,5.67
2019-05-20T03:05:31.176Z,8.13
2019-05-20T03:08:00.174Z,11.63
2019-05-20T03:10:29.127Z,11.43
2019-05-20T03:12:58.067Z,11.37
2019-05-20T03:15:27.043Z,12.10
2019-05-20T03:17:55.986Z,11.73
2019-05-20T03:20:25.036Z,11.93
2019-05-20T03:22:55.472Z,14.53
2019-05-20T03:25:24.445Z,15.53
2019-05-20T03:27:53.387Z,14.63
2019-05-20T03:30:22.472Z,15.23
2019-05-20T03:32:51.473Z,14.57
2019-05-20T03:35:20.448Z,16.50
2019-05-20T03:37:49.432Z,14.47
2019-05-20T03:40:18.466Z,16.37
2019-05-20T03:42:47.516Z,15.67
2019-05-20T03:45:16.583Z,15.90
2019-05-20T03:47:45.481Z,16.37
2019-05-20T03:50:14.775Z,17.33
2019-05-20T03:52:43.598Z,17.20
2019-05-20T03:55:12.615Z,16.73
2019-05-20T03:57:41.628Z,18.40
2019-05-20T04:00:11.765Z,16.10
2019-05-20T04:02:40.704Z,15.83
2019-05-20T04:05:09.721Z,15.80
2019-05-20T04:07:38.608Z,16.77
2019-05-20T04:10:07.868Z,15.40
2019-05-20T04:12:36.863Z,16.63
2019-05-20T04:15:06.041Z,17.57
2019-05-20T04:17:35.025Z,17.40
2019-05-20T04:20:04.141Z,17.87
2019-05-20T04:22:32.951Z,17.57
2019-05-20T04:25:02.048Z,17.50
2019-05-20T04:27:31.044Z,18.97
2019-05-20T04:30:00.048Z,20.23
2019-05-20T04:32:29.237Z,19.47
2019-05-20T04:35:18.322Z,17.83
2019-05-20T04:37:31.176Z,18.25
2019-05-20T04:40:00.181Z,17.12
2019-05-20T04:42:29.373Z,17.90
2019-05-20T04:44:58.386Z,17.60
2019-05-20T04:47:27.300Z,18.20
2019-05-20T04:49:56.297Z,19.67
2019-05-20T04:52:25.363Z,19.17
2019-05-20T04:54:54.222Z,19.10
2019-05-20T04:57:23.192Z,20.90
2019-05-20T04:59:52.166Z,19.93
2019-05-20T05:02:21.063Z,20.87
2019-05-20T05:04:50.142Z,20.70
2019-05-20T05:07:19.135Z,21.17
2019-05-20T05:09:48.128Z,20.43
2019-05-20T05:12:17.159Z,20.40
2019-05-20T05:14:46.114Z,21.40
2019-05-20T05:17:15.321Z,20.37
2019-05-20T05:19:44.302Z,22.30
2019-05-20T05:22:13.692Z,24.03
2019-05-20T05:24:42.890Z,22.93
2019-05-20T05:27:11.884Z,22.27
2019-05-20T05:29:40.845Z,24.17
2019-05-20T05:32:09.854Z,24.40
2019-05-20T05:34:39.233Z,23.60
2019-05-20T05:37:08.246Z,22.27
2019-05-20T05:39:37.304Z,22.67
2019-05-20T05:42:06.376Z,22.47
2019-05-20T05:44:35.383Z,23.10
2019-05-20T05:47:04.343Z,24.70
2019-05-20T05:49:33.189Z,26.10
2019-05-20T05:52:02.161Z,25.23
2019-05-20T05:54:31.124Z,27.07
2019-05-20T05:56:59.974Z,27.97
2019-05-20T05:59:28.987Z,25.97
2019-05-20T06:01:57.920Z,28.00
2019-05-20T06:04:26.894Z,26.67
2019-05-20T06:06:55.893Z,23.30
2019-05-20T06:09:24.700Z,27.43
2019-05-20T06:11:53.610Z,29.10
2019-05-20T06:14:22.450Z,30.23
2019-05-20T06:16:51.411Z,28.90
2019-05-20T06:19:23.185Z,29.50
2019-05-20T06:21:52.209Z,29.07
2019-05-20T06:24:21.189Z,28.53
2019-05-20T06:26:50.196Z,28.13
2019-05-20T06:29:20.668Z,30.83
2019-05-20T06:31:49.912Z,29.43
2019-05-20T06:34:19.060Z,30.17
2019-05-20T06:36:50.838Z,28.43
2019-05-20T06:39:19.789Z,29.77
2019-05-20T06:41:48.662Z,28.70
2019-05-20T06:44:17.668Z,29.60
2019-05-20T06:46:46.572Z,29.37
2019-05-20T06:49:15.427Z,30.03
2019-05-20T06:51:44.402Z,30.33
2019-05-20T06:54:13.320Z,30.07
2019-05-20T06:56:42.408Z,31.33
2019-05-20T06:59:11.612Z,30.30
2019-05-20T07:01:40.634Z,29.87
2019-05-20T07:04:09.591Z,29.60
2019-05-20T07:06:46.818Z,30.80
2019-05-20T07:09:09.285Z,28.23
2019-05-20T07:11:38.457Z,27.67
2019-05-20T07:14:07.566Z,29.37
2019-05-20T07:16:36.608Z,28.67
2019-05-20T07:19:05.788Z,24.97
2019-05-20T07:21:34.642Z,26.60
2019-05-20T07:24:04.080Z,28.27
2019-05-20T07:26:33.361Z,27.77
2019-05-20T07:29:02.353Z,27.20
2019-05-20T07:31:31.338Z,28.00
2019-05-20T07:34:00.304Z,29.47
2019-05-20T07:36:29.190Z,28.17
2019-05-20T07:38:58.137Z,30.17
2019-05-20T07:41:27.079Z,26.70
2019-05-20T07:43:56.064Z,28.13
2019-05-20T07:46:25.604Z,29.03
2019-05-20T07:48:55.082Z,29.07
2019-05-20T07:51:24.618Z,26.03
2019-05-20T07:53:53.692Z,25.03
2019-05-20T07:56:26.091Z,22.47
2019-05-20T07:58:58.109Z,25.87
2019-05-20T08:01:27.600Z,24.83
2019-05-20T08:03:56.621Z,24.87
2019-05-20T08:06:25.641Z,23.77
2019-05-20T08:08:54.674Z,21.03
2019-05-20T08:11:23.596Z,23.47
2019-05-20T08:13:56.720Z,18.57
2019-05-20T08:16:25.828Z,20.67
2019-05-20T08:18:54.919Z,18.27
2019-05-20T08:21:23.811Z,19.03
2019-05-20T08:23:52.864Z,19.53
2019-05-20T08:26:21.910Z,16.70
2019-05-20T08:28:50.954Z,18.93
2019-05-20T08:31:19.929Z,18.80
2019-05-20T08:33:48.747Z,19.67
2019-05-20T08:36:17.694Z,19.43
2019-05-20T08:38:46.481Z,18.87
2019-05-20T08:41:15.784Z,18.57
2019-05-20T08:43:49.722Z,17.27
2019-05-20T08:46:18.888Z,17.13
2019-05-20T08:48:47.864Z,16.10
2019-05-20T08:51:16.797Z,16.67
2019-05-20T08:53:45.828Z,15.87
2019-05-20T08:56:14.811Z,16.00
2019-05-20T08:58:43.603Z,15.80
2019-05-20T09:01:12.669Z,16.63
2019-05-20T09:03:41.479Z,15.23
2019-05-20T09:06:10.609Z,16.53
2019-05-20T09:08:39.662Z,15.40
2019-05-20T09:11:08.653Z,16.93
2019-05-20T09:13:37.637Z,16.83
2019-05-20T09:16:06.599Z,17.70
2019-05-20T09:18:35.604Z,19.57
2019-05-20T09:21:04.575Z,18.67
2019-05-20T09:23:33.549Z,17.03
2019-05-20T09:26:02.405Z,17.20
2019-05-20T09:28:31.318Z,17.57
2019-05-20T09:31:00.238Z,17.83
2019-05-20T09:33:29.303Z,17.37
2019-05-20T09:35:58.386Z,17.67
2019-05-20T09:38:27.252Z,17.40
2019-05-20T09:40:56.234Z,19.97
2019-05-20T09:43:26.080Z,18.87
2019-05-20T09:46:06.706Z,19.43
2019-05-20T09:48:25.703Z,18.60
2019-05-20T09:50:54.720Z,20.23
2019-05-20T09:53:24.132Z,19.30
2019-05-20T09:55:53.098Z,21.03
2019-05-20T09:58:21.978Z,20.30
2019-05-20T10:00:50.986Z,20.13
2019-05-20T10:03:19.981Z,18.53
2019-05-20T10:05:48.869Z,18.37
2019-05-20T10:08:34.517Z,18.57
2019-05-20T10:10:48.559Z,17.93
2019-05-20T10:13:17.545Z,19.03
2019-05-20T10:15:46.439Z,18.67
2019-05-20T10:18:15.377Z,18.30
2019-05-20T10:20:44.259Z,15.95
2019-05-20T10:23:15.759Z,16.47
2019-05-20T10:25:43.879Z,16.60
2019-05-20T10:28:12.873Z,17.00
2019-05-20T10:30:41.901Z,15.47
2019-05-20T10:33:11.105Z,15.93
2019-05-20T10:35:40.233Z,14.67
2019-05-20T10:38:09.270Z,14.77
2019-05-20T10:40:38.307Z,13.77
2019-05-20T10:43:07.186Z,14.73
2019-05-20T10:45:36.268Z,11.73
2019-05-20T10:48:08.768Z,14.80
2019-05-20T10:50:36.122Z,13.73
2019-05-20T10:53:05.229Z,13.77
2019-05-20T10:55:38.134Z,14.63
2019-05-20T10:58:06.755Z,15.33
2019-05-20T11:00:35.770Z,13.90
2019-05-20T11:03:04.826Z,14.33
2019-05-20T11:05:42.346Z,13.50
2019-05-20T11:08:39.675Z,13.63
2019-05-20T11:11:14.181Z,14.37
2019-05-20T11:13:40.977Z,14.37
2019-05-20T11:16:09.888Z,13.30
2019-05-20T11:18:38.739Z,13.57
2019-05-20T11:21:07.635Z,11.63
2019-05-20T11:23:36.598Z,13.03
2019-05-20T11:26:05.553Z,14.30
2019-05-20T11:28:34.570Z,15.03
2019-05-20T11:31:03.545Z,14.67
2019-05-20T11:33:32.557Z,13.33
2019-05-20T11:36:01.438Z,12.93
2019-05-20T11:38:30.723Z,12.63
2019-05-20T11:40:59.629Z,12.83
2019-05-20T11:43:28.581Z,12.17
2019-05-20T11:45:57.495Z,12.30
2019-05-20T11:48:26.345Z,13.33
2019-05-20T11:50:55.097Z,14.33
2019-05-20T11:53:23.988Z,18.37
2019-05-20T11:55:52.858Z,18.43
2019-05-20T11:58:21.948Z,19.77
2019-05-20T12:00:50.935Z,21.17
2019-05-20T12:03:19.871Z,21.93
2019-05-20T12:05:48.792Z,21.23
2019-05-20T12:08:17.661Z,16.53
2019-05-20T12:10:46.580Z,14.03
2019-05-20T12:13:16.497Z,14.17
2019-05-20T12:15:45.439Z,15.40
2019-05-20T12:18:14.314Z,15.40
2019-05-20T12:20:43.232Z,16.67
2019-05-20T12:23:12.221Z,17.37
2019-05-20T12:25:41.059Z,17.60
2019-05-20T12:28:10.192Z,17.90
2019-05-20T12:30:39.543Z,19.17
2019-05-20T12:33:18.516Z,20.03
2019-05-20T12:35:38.935Z,22.30
2019-05-20T12:38:07.895Z,21.20
2019-05-20T12:40:36.751Z,21.97
2019-05-20T12:43:05.713Z,20.53
2019-05-20T12:45:34.653Z,24.17
2019-05-20T12:48:03.604Z,25.03
2019-05-20T12:50:32.551Z,24.10
2019-05-20T12:53:01.458Z,24.30
2019-05-20T12:55:30.394Z,24.40
2019-05-20T12:57:59.358Z,25.40
2019-05-20T13:00:28.286Z,25.17
2019-05-20T13:02:57.169Z,28.27
2019-05-20T13:05:26.189Z,28.90
2019-05-20T13:07:55.268Z,25.60
2019-05-20T13:10:29.546Z,25.90
2019-05-20T13:12:55.047Z,28.97
2019-05-20T13:15:24.061Z,28.00
2019-05-20T13:17:53.451Z,26.93
2019-05-20T13:20:22.800Z,30.17
2019-05-20T13:22:51.965Z,29.23
2019-05-20T13:25:20.912Z,29.30
2019-05-20T13:27:49.787Z,31.50
2019-05-20T13:30:19.254Z,30.07
2019-05-20T13:32:48.193Z,30.17
2019-05-20T13:35:17.637Z,28.20
2019-05-20T13:37:46.671Z,29.37
2019-05-20T13:40:16.152Z,30.23
2019-05-20T13:42:45.010Z,29.30
2019-05-20T13:45:14.437Z,31.03
2019-05-20T13:47:43.207Z,30.90
2019-05-20T13:50:12.905Z,31.57
2019-05-20T13:52:41.839Z,31.17
2019-05-20T13:55:11.420Z,29.10
2019-05-20T13:57:40.432Z,31.13
2019-05-20T14:00:10.263Z,29.47
2019-05-20T14:02:39.389Z,28.97
2019-05-20T14:05:08.359Z,28.10
2019-05-20T14:07:37.172Z,30.50
2019-05-20T14:10:06.415Z,31.53
2019-05-20T14:12:35.403Z,30.47
2019-05-20T14:15:04.805Z,29.63
2019-05-20T14:17:33.814Z,28.47
2019-05-20T14:20:03.134Z,27.30
2019-05-20T14:22:32.206Z,28.30
2019-05-20T14:25:03.634Z,28.80
2019-05-20T14:27:32.629Z,24.43
2019-05-20T14:30:01.612Z,25.97
2019-05-20T14:32:30.677Z,27.87
2019-05-20T14:34:59.610Z,27.07
2019-05-20T14:37:28.667Z,29.17
2019-05-20T14:39:57.698Z,28.60
2019-05-20T14:42:26.631Z,29.13
2019-05-20T14:44:55.541Z,27.60
2019-05-20T14:47:26.164Z,26.77
2019-05-20T14:49:55.169Z,26.57
2019-05-20T14:52:24.293Z,27.27
2019-05-20T14:54:53.287Z,23.67
2019-05-20T14:57:22.209Z,26.70
2019-05-20T14:59:51.227Z,26.93
2019-05-20T15:02:20.119Z,27.20
2019-05-20T15:04:49.160Z,27.13
2019-05-20T15:07:29.151Z,25.50
2019-05-20T15:09:48.852Z,28.80
2019-05-20T15:12:17.769Z,28.03
2019-05-20T15:14:46.639Z,28.87
2019-05-20T15:17:15.646Z,29.63
2019-05-20T15:19:44.612Z,28.17
2019-05-20T15:22:13.931Z,28.40
2019-05-20T15:24:42.807Z,29.07
2019-05-20T15:27:11.801Z,30.80
2019-05-20T15:29:40.796Z,32.37
2019-05-20T15:32:09.680Z,30.67
2019-05-20T15:34:38.859Z,28.67
2019-05-20T15:37:07.874Z,32.77
2019-05-20T15:39:36.751Z,32.90
2019-05-20T15:42:05.786Z,34.57
2019-05-20T15:44:34.933Z,33.20
2019-05-20T15:47:03.793Z,30.10
2019-05-20T15:49:32.631Z,32.27
2019-05-20T15:52:01.549Z,34.67
2019-05-20T15:54:30.442Z,36.00
2019-05-20T15:56:59.493Z,36.10
2019-05-20T15:59:43.141Z,36.03
2019-05-20T16:01:59.041Z,36.93
2019-05-20T16:04:27.957Z,35.33
2019-05-20T16:07:00.174Z,37.37
2019-05-20T16:09:27.531Z,37.03
2019-05-20T16:11:57.459Z,36.75
2019-05-20T16:14:26.354Z,35.97
2019-05-20T16:16:55.289Z,36.57
2019-05-20T16:19:24.301Z,38.30
2019-05-20T16:21:53.302Z,37.87
2019-05-20T16:24:22.230Z,34.57
2019-05-20T16:26:51.227Z,37.17
2019-05-20T16:29:20.211Z,39.13
2019-05-20T16:31:49.115Z,37.83
2019-05-20T16:34:18.051Z,37.43
2019-05-20T16:36:47.080Z,35.93
2019-05-20T16:39:16.504Z,37.50
2019-05-20T16:41:45.574Z,38.93
2019-05-20T16:44:14.536Z,38.23
2019-05-20T16:46:43.529Z,36.73
2019-05-20T16:49:12.571Z,37.70
2019-05-20T16:51:41.513Z,37.20
2019-05-20T16:54:10.458Z,36.00
2019-05-20T16:56:39.434Z,38.00
2019-05-20T16:59:08.518Z,38.57
2019-05-20T17:01:45.930Z,36.47
2019-05-20T17:04:08.188Z,37.23
2019-05-20T17:06:37.212Z,38.60
2019-05-20T17:09:06.457Z,39.63
2019-05-20T17:11:35.539Z,37.40
2019-05-20T17:14:04.579Z,37.70
2019-05-20T17:16:33.646Z,38.33
2019-05-20T17:19:02.690Z,35.43
2019-05-20T17:21:31.581Z,38.90
2019-05-20T17:24:00.524Z,38.97
2019-05-20T17:26:29.493Z,36.23
2019-05-20T17:28:58.464Z,36.10
2019-05-20T17:31:30.679Z,37.53
2019-05-20T17:33:58.223Z,36.37
2019-05-20T17:36:27.363Z,34.13
2019-05-20T17:38:56.186Z,35.83
2019-05-20T17:41:25.330Z,37.33
2019-05-20T17:43:54.236Z,35.80
2019-05-20T17:46:23.354Z,32.73
2019-05-20T17:48:52.400Z,35.47
2019-05-20T17:51:21.400Z,36.30
2019-05-20T17:53:50.459Z,33.73
2019-05-20T17:56:19.673Z,35.90
2019-05-20T17:58:48.651Z,36.10
2019-05-20T18:01:17.523Z,36.20
2019-05-20T18:03:46.575Z,34.83
2019-05-20T18:06:15.517Z,32.60
2019-05-20T18:08:47.420Z,34.18
2019-05-20T18:11:19.259Z,34.77
2019-05-20T18:13:47.117Z,34.13
2019-05-20T18:16:16.079Z,35.43
2019-05-20T18:18:44.979Z,34.97
2019-05-20T18:21:13.907Z,35.13
2019-05-20T18:23:42.806Z,33.17
2019-05-20T18:26:11.801Z,34.37
2019-05-20T18:28:41.095Z,29.03
2019-05-20T18:31:10.079Z,32.23
2019-05-20T18:33:39.098Z,30.23
2019-05-20T18:36:08.088Z,32.93
2019-05-20T18:38:36.978Z,30.50
2019-05-20T18:41:05.945Z,30.80
2019-05-20T18:43:35.004Z,32.87
2019-05-20T18:46:03.904Z,34.23
2019-05-20T18:48:33.102Z,34.10
2019-05-20T18:51:02.231Z,27.00
2019-05-20T18:53:31.254Z,29.43
2019-05-20T18:56:00.313Z,33.40
2019-05-20T18:58:29.291Z,31.20
2019-05-20T19:00:58.213Z,31.40
2019-05-20T19:03:28.238Z,31.67
2019-05-20T19:05:57.820Z,31.13
2019-05-20T19:08:26.818Z,30.07
2019-05-20T19:10:59.187Z,31.50
2019-05-20T19:13:28.442Z,30.23
2019-05-20T19:15:57.387Z,32.33
2019-05-20T19:18:26.337Z,30.47
2019-05-20T19:20:55.255Z,27.07
2019-05-20T19:23:24.234Z,30.27
2019-05-20T19:25:53.228Z,30.80
2019-05-20T19:28:22.456Z,29.00
2019-05-20T19:30:51.519Z,31.77
2019-05-20T19:33:21.332Z,31.03
2019-05-20T19:35:50.279Z,28.43
2019-05-20T19:38:19.355Z,31.13
2019-05-20T19:40:48.395Z,31.27
2019-05-20T19:43:17.355Z,32.43
2019-05-20T19:45:46.304Z,29.57
2019-05-20T19:48:15.315Z,31.93
2019-05-20T19:50:44.349Z,31.07
2019-05-20T19:53:13.447Z,31.63
2019-05-20T19:55:42.334Z,29.30
2019-05-20T19:58:11.408Z,29.03
2019-05-20T20:00:40.263Z,28.23
2019-05-20T20:03:09.224Z,33.80
2019-05-20T20:05:38.179Z,33.20
2019-05-20T20:08:07.194Z,32.13
2019-05-20T20:10:36.185Z,33.43
2019-05-20T20:13:05.332Z,34.03
2019-05-20T20:15:34.324Z,33.97
2019-05-20T20:18:03.521Z,35.83
2019-05-20T20:20:32.392Z,35.23
2019-05-20T20:23:01.393Z,33.50
2019-05-20T20:25:30.449Z,36.57
2019-05-20T20:27:59.400Z,37.57
2019-05-20T20:30:28.569Z,39.03
2019-05-20T20:32:58.018Z,37.63
2019-05-20T20:35:37.770Z,41.10
2019-05-20T20:37:57.720Z,37.63
2019-05-20T20:40:26.708Z,35.53
2019-05-20T20:42:55.638Z,39.97
2019-05-20T20:45:24.622Z,40.13
2019-05-20T20:47:56.300Z,42.97
2019-05-20T20:50:27.109Z,42.23
2019-05-20T20:52:56.451Z,41.03
2019-05-20T20:55:26.360Z,41.63
2019-05-20T20:57:55.528Z,42.90
2019-05-20T21:00:24.769Z,43.77
2019-05-20T21:02:54.417Z,38.50
2019-05-20T21:05:24.228Z,41.57
2019-05-20T21:07:53.247Z,42.03
2019-05-20T21:10:27.133Z,42.33
2019-05-20T21:12:56.774Z,44.33
2019-05-20T21:15:25.798Z,41.27
2019-05-20T21:17:54.659Z,41.43
2019-05-20T21:20:23.617Z,40.93
2019-05-20T21:22:52.563Z,41.57
2019-05-20T21:25:21.532Z,40.30
2019-05-20T21:27:50.412Z,43.10
2019-05-20T21:30:19.416Z,42.03
2019-05-20T21:32:48.364Z,41.60
2019-05-20T21:35:17.403Z,41.03
2019-05-20T21:37:46.351Z,39.70
2019-05-20T21:40:15.411Z,39.67
2019-05-20T21:42:44.536Z,42.63
2019-05-20T21:45:14.043Z,42.90
2019-05-20T21:47:44.802Z,44.27
2019-05-20T21:50:13.851Z,41.17
2019-05-20T21:52:43.062Z,43.27
2019-05-20T21:55:12.328Z,42.50
2019-05-20T21:57:41.367Z,40.37
2019-05-20T22:00:12.924Z,44.47
2019-05-20T22:02:41.940Z,42.30
2019-05-20T22:05:11.140Z,43.37
2019-05-20T22:07:39.963Z,42.13
2019-05-20T22:10:09.760Z,43.20
2019-05-20T22:12:38.825Z,41.08
2019-05-20T22:15:07.885Z,43.93
2019-05-20T22:17:36.830Z,41.50
2019-05-20T22:20:06.076Z,43.27
2019-05-20T22:22:49.134Z,41.23
2019-05-20T22:25:18.041Z,43.27
2019-05-20T22:27:49.883Z,45.00
2019-05-20T22:30:18.952Z,43.93
2019-05-20T22:32:47.904Z,43.03
2019-05-20T22:35:16.803Z,43.03
2019-05-20T22:37:45.597Z,43.92
2019-05-20T22:40:14.635Z,36.63
2019-05-20T22:42:43.519Z,42.80
2019-05-20T22:45:12.615Z,44.00
2019-05-20T22:47:41.542Z,44.30
2019-05-20T22:50:10.521Z,44.63
2019-05-20T22:52:39.341Z,43.20
2019-05-20T22:55:08.343Z,45.17
2019-05-20T22:57:37.328Z,43.87
2019-05-20T23:00:07.427Z,40.17
2019-05-20T23:02:36.356Z,42.93
2019-05-20T23:05:05.844Z,37.73
2019-05-20T23:07:34.848Z,44.40
2019-05-20T23:10:04.011Z,44.90
2019-05-20T23:12:32.922Z,44.30
2019-05-20T23:15:02.023Z,43.97
2019-05-20T23:17:30.989Z,43.33
2019-05-20T23:19:59.932Z,42.40
2019-05-20T23:22:29.000Z,43.13
2019-05-20T23:24:57.904Z,43.33
2019-05-20T23:27:26.903Z,40.87
2019-05-20T23:29:55.885Z,38.03
2019-05-20T23:32:24.794Z,41.70
2019-05-20T23:34:53.780Z,39.03
2019-05-20T23:37:22.781Z,39.63
2019-05-20T23:39:51.767Z,34.70
2019-05-20T23:42:20.784Z,39.03
2019-05-20T23:44:49.827Z,39.00
2019-05-20T23:47:18.939Z,32.42
2019-05-20T23:49:47.846Z,35.57
2019-05-20T23:52:16.722Z,31.93
2019-05-20T23:54:45.712Z,31.97
2019-05-20T23:57:14.703Z,35.53
2019-05-20T23:59:45.203Z,34.83
